sensor_id;sensor_type;location;lat;lon;timestamp;pressure;altitude;pressure_sealevel;temperature;humidity
63654;BME280;49809;47.418;19.080;2022-10-16T00:04:00;100978.12;;;13.37;84.55
63654;BME280;49809;47.418;19.080;2022-10-16T00:07:27;100983.19;;;13.38;83.89
63654;BME280;49809;47.418;19.080;2022-10-16T00:11:39;100985.03;;;13.38;84.40
63654;BME280;49809;47.418;19.080;2022-10-16T00:15:43;100974.66;;;13.36;84.91
63654;BME280;49809;47.418;19.080;2022-10-16T00:19:35;100976.25;;;13.37;84.41
63654;BME280;49809;47.418;19.080;2022-10-16T00:23:43;100972.78;;;13.37;83.90
63654;BME280;49809;47.418;19.080;2022-10-16T00:27:26;100976.78;;;13.34;83.05
63654;BME280;49809;47.418;19.080;2022-10-16T00:31:13;100978.88;;;13.32;82.84
63654;BME280;49809;47.418;19.080;2022-10-16T00:34:50;100981.59;;;13.37;82.34
63654;BME280;49809;47.418;19.080;2022-10-16T00:39:01;100987.16;;;13.36;82.17
63654;BME280;49809;47.418;19.080;2022-10-16T00:42:44;100990.59;;;13.36;82.09
63654;BME280;49809;47.418;19.080;2022-10-16T00:58:38;100994.06;;;13.10;82.13
63654;BME280;49809;47.418;19.080;2022-10-16T01:02:31;100997.72;;;13.04;83.07
63654;BME280;49809;47.418;19.080;2022-10-16T01:06:10;101007.06;;;12.85;83.84
63654;BME280;49809;47.418;19.080;2022-10-16T01:14:56;101009.78;;;12.46;85.72
63654;BME280;49809;47.418;19.080;2022-10-16T01:24:17;101015.19;;;11.96;89.44
63654;BME280;49809;47.418;19.080;2022-10-16T01:27:36;101017.66;;;11.69;90.92
63654;BME280;49809;47.418;19.080;2022-10-16T01:35:37;101027.56;;;11.29;92.90
63654;BME280;49809;47.418;19.080;2022-10-16T01:51:59;101030.81;;;10.63;97.03
63654;BME280;49809;47.418;19.080;2022-10-16T01:56:08;101031.62;;;10.52;97.99
63654;BME280;49809;47.418;19.080;2022-10-16T01:59:56;101035.88;;;10.41;97.88
63654;BME280;49809;47.418;19.080;2022-10-16T02:03:40;101040.63;;;10.27;98.20
63654;BME280;49809;47.418;19.080;2022-10-16T02:15:35;101052.66;;;10.00;100.00
63654;BME280;49809;47.418;19.080;2022-10-16T02:19:44;101053.78;;;9.92;100.00
63654;BME280;49809;47.418;19.080;2022-10-16T02:35:58;101052.12;;;9.56;100.00
63654;BME280;49809;47.418;19.080;2022-10-16T02:40:03;101053.69;;;9.46;100.00
63654;BME280;49809;47.418;19.080;2022-10-16T02:43:29;101060.47;;;9.42;100.00
63654;BME280;49809;47.418;19.080;2022-10-16T02:47:37;101063.56;;;9.39;100.00
63654;BME280;49809;47.418;19.080;2022-10-16T02:51:35;101064.00;;;9.36;100.00
63654;BME280;49809;47.418;19.080;2022-10-16T03:04:08;101077.72;;;9.14;100.00
63654;BME280;49809;47.418;19.080;2022-10-16T03:16:05;101076.34;;;8.94;100.00
63654;BME280;49809;47.418;19.080;2022-10-16T03:19:40;101072.75;;;8.88;100.00
63654;BME280;49809;47.418;19.080;2022-10-16T03:23:27;101080.06;;;8.86;100.00
63654;BME280;49809;47.418;19.080;2022-10-16T03:27:19;101080.38;;;8.78;100.00
63654;BME280;49809;47.418;19.080;2022-10-16T03:30:48;101082.66;;;8.75;100.00
63654;BME280;49809;47.418;19.080;2022-10-16T03:34:51;101094.69;;;8.70;100.00
63654;BME280;49809;47.418;19.080;2022-10-16T03:38:46;101094.94;;;8.62;100.00
63654;BME280;49809;47.418;19.080;2022-10-16T03:42:23;101093.72;;;8.65;100.00
63654;BME280;49809;47.418;19.080;2022-10-16T03:46:00;101096.84;;;8.55;100.00
63654;BME280;49809;47.418;19.080;2022-10-16T03:50:08;101097.94;;;8.48;100.00
63654;BME280;49809;47.418;19.080;2022-10-16T03:57:48;101113.03;;;8.41;100.00
63654;BME280;49809;47.418;19.080;2022-10-16T04:06:00;101114.72;;;8.28;100.00
63654;BME280;49809;47.418;19.080;2022-10-16T04:10:12;101110.69;;;8.26;100.00
63654;BME280;49809;47.418;19.080;2022-10-16T04:13:42;101123.34;;;8.17;100.00
63654;BME280;49809;47.418;19.080;2022-10-16T04:17:21;101130.22;;;8.18;100.00
63654;BME280;49809;47.418;19.080;2022-10-16T04:29:22;101125.06;;;8.05;100.00
63654;BME280;49809;47.418;19.080;2022-10-16T04:33:20;101123.88;;;8.01;100.00
63654;BME280;49809;47.418;19.080;2022-10-16T04:37:26;101119.19;;;8.03;100.00
63654;BME280;49809;47.418;19.080;2022-10-16T04:45:25;101117.81;;;7.94;100.00
63654;BME280;49809;47.418;19.080;2022-10-16T04:49:12;101130.47;;;7.85;100.00
63654;BME280;49809;47.418;19.080;2022-10-16T04:57:08;101130.69;;;7.84;100.00
63654;BME280;49809;47.418;19.080;2022-10-16T05:00:47;101144.72;;;7.78;100.00
63654;BME280;49809;47.418;19.080;2022-10-16T05:04:22;101148.38;;;7.77;100.00
63654;BME280;49809;47.418;19.080;2022-10-16T05:07:49;101148.78;;;7.74;100.00
63654;BME280;49809;47.418;19.080;2022-10-16T05:16:10;101159.75;;;7.71;100.00
63654;BME280;49809;47.418;19.080;2022-10-16T05:19:47;101152.63;;;7.78;100.00
63654;BME280;49809;47.418;19.080;2022-10-16T05:23:24;101154.28;;;7.72;100.00
63654;BME280;49809;47.418;19.080;2022-10-16T05:27:06;101159.75;;;7.71;100.00
63654;BME280;49809;47.418;19.080;2022-10-16T05:39:18;101164.72;;;7.85;100.00
63654;BME280;49809;47.418;19.080;2022-10-16T05:51:30;101177.28;;;8.21;100.00
63654;BME280;49809;47.418;19.080;2022-10-16T05:55:41;101180.16;;;8.45;100.00
63654;BME280;49809;47.418;19.080;2022-10-16T05:59:08;101181.69;;;8.77;100.00
63654;BME280;49809;47.418;19.080;2022-10-16T06:15:49;101205.28;;;10.41;99.53
63654;BME280;49809;47.418;19.080;2022-10-16T06:53:08;101256.97;;;13.93;74.53
63654;BME280;49809;47.418;19.080;2022-10-16T07:00:19;101251.88;;;14.41;72.34
63654;BME280;49809;47.418;19.080;2022-10-16T07:03:26;101258.81;;;14.20;70.64
63654;BME280;49809;47.418;19.080;2022-10-16T07:14:20;101268.38;;;14.38;70.58
63654;BME280;49809;47.418;19.080;2022-10-16T07:21:50;101278.56;;;13.97;72.17
63654;BME280;49809;47.418;19.080;2022-10-16T07:25:53;101280.72;;;14.00;71.79
63654;BME280;49809;47.418;19.080;2022-10-16T07:29:31;101283.63;;;13.33;74.87
63654;BME280;49809;47.418;19.080;2022-10-16T07:32:59;101284.63;;;13.71;72.94
63654;BME280;49809;47.418;19.080;2022-10-16T07:36:41;101287.97;;;13.23;74.54
63654;BME280;49809;47.418;19.080;2022-10-16T07:40:09;101298.47;;;13.29;74.75
63654;BME280;49809;47.418;19.080;2022-10-16T07:43:32;101298.63;;;13.23;74.77
63654;BME280;49809;47.418;19.080;2022-10-16T07:47:07;101302.41;;;13.27;75.68
63654;BME280;49809;47.418;19.080;2022-10-16T07:51:09;101304.16;;;13.38;74.53
63654;BME280;49809;47.418;19.080;2022-10-16T07:55:00;101311.97;;;13.44;74.60
63654;BME280;49809;47.418;19.080;2022-10-16T07:58:04;101318.72;;;13.52;73.44
63654;BME280;49809;47.418;19.080;2022-10-16T08:01:31;101318.16;;;13.50;73.55
63654;BME280;49809;47.418;19.080;2022-10-16T08:09:22;101326.03;;;13.62;73.72
63654;BME280;49809;47.418;19.080;2022-10-16T08:13:02;101332.84;;;13.74;73.52
63654;BME280;49809;47.418;19.080;2022-10-16T08:16:48;101336.13;;;13.60;73.84
63654;BME280;49809;47.418;19.080;2022-10-16T08:20:33;101330.19;;;13.74;72.89
63654;BME280;49809;47.418;19.080;2022-10-16T08:24:16;101332.66;;;13.81;72.16
63654;BME280;49809;47.418;19.080;2022-10-16T08:28:03;101327.97;;;13.88;72.80
63654;BME280;49809;47.418;19.080;2022-10-16T08:31:15;101331.09;;;13.85;73.56
63654;BME280;49809;47.418;19.080;2022-10-16T08:34:44;101340.84;;;13.96;72.80
63654;BME280;49809;47.418;19.080;2022-10-16T08:38:33;101351.78;;;14.00;73.21
63654;BME280;49809;47.418;19.080;2022-10-16T08:49:30;101356.91;;;14.50;71.78
63654;BME280;49809;47.418;19.080;2022-10-16T08:56:43;101359.88;;;14.80;68.37
63654;BME280;49809;47.418;19.080;2022-10-16T09:00:20;101369.78;;;15.21;68.40
63654;BME280;49809;47.418;19.080;2022-10-16T09:12:01;101352.31;;;16.75;63.25
63654;BME280;49809;47.418;19.080;2022-10-16T09:16:24;101368.84;;;17.53;60.15
63654;BME280;49809;47.418;19.080;2022-10-16T09:27:32;101357.31;;;18.81;57.28
63654;BME280;49809;47.418;19.080;2022-10-16T09:31:20;101359.53;;;19.32;54.30
63654;BME280;49809;47.418;19.080;2022-10-16T09:34:28;101357.62;;;19.32;53.71
63654;BME280;49809;47.418;19.080;2022-10-16T09:41:55;101355.13;;;18.83;55.98
63654;BME280;49809;47.418;19.080;2022-10-16T09:45:23;101352.69;;;18.87;55.51
63654;BME280;49809;47.418;19.080;2022-10-16T09:49:05;101358.50;;;18.60;56.89
63654;BME280;49809;47.418;19.080;2022-10-16T09:52:23;101356.75;;;18.35;56.65
63654;BME280;49809;47.418;19.080;2022-10-16T09:55:59;101354.84;;;18.41;56.54
63654;BME280;49809;47.418;19.080;2022-10-16T10:03:40;101367.91;;;18.03;56.80
63654;BME280;49809;47.418;19.080;2022-10-16T10:07:06;101362.28;;;18.10;56.95
63654;BME280;49809;47.418;19.080;2022-10-16T10:14:57;101365.66;;;18.25;57.36
63654;BME280;49809;47.418;19.080;2022-10-16T10:18:44;101367.91;;;18.08;58.29
63654;BME280;49809;47.418;19.080;2022-10-16T10:26:13;101350.06;;;18.38;57.56
63654;BME280;49809;47.418;19.080;2022-10-16T10:30:22;101345.94;;;18.55;57.23
63654;BME280;49809;47.418;19.080;2022-10-16T10:33:52;101339.47;;;18.61;57.26
63654;BME280;49809;47.418;19.080;2022-10-16T10:49:19;101337.09;;;20.55;51.26
63654;BME280;49809;47.418;19.080;2022-10-16T10:53:02;101333.75;;;21.42;49.43
63654;BME280;49809;47.418;19.080;2022-10-16T10:56:57;101337.34;;;21.51;47.98
63654;BME280;49809;47.418;19.080;2022-10-16T11:12:47;101336.69;;;23.73;43.35
63654;BME280;49809;47.418;19.080;2022-10-16T11:16:30;101333.09;;;24.81;39.17
63654;BME280;49809;47.418;19.080;2022-10-16T11:24:14;101333.28;;;24.67;39.28
63654;BME280;49809;47.418;19.080;2022-10-16T11:31:43;101321.03;;;24.18;40.33
63654;BME280;49809;47.418;19.080;2022-10-16T11:39:32;101313.34;;;23.37;41.48
63654;BME280;49809;47.418;19.080;2022-10-16T11:51:01;101309.66;;;22.14;44.77
63654;BME280;49809;47.418;19.080;2022-10-16T11:54:49;101311.78;;;21.76;46.53
63654;BME280;49809;47.418;19.080;2022-10-16T11:58:49;101315.44;;;22.21;45.52
63654;BME280;49809;47.418;19.080;2022-10-16T12:02:33;101307.31;;;21.71;45.76
63654;BME280;49809;47.418;19.080;2022-10-16T12:06:38;101314.00;;;21.33;47.78
63654;BME280;49809;47.418;19.080;2022-10-16T12:10:26;101313.59;;;21.53;46.35
63654;BME280;49809;47.418;19.080;2022-10-16T12:13:49;101306.47;;;21.84;46.70
63654;BME280;49809;47.418;19.080;2022-10-16T12:17:26;101302.22;;;21.83;46.42
63654;BME280;49809;47.418;19.080;2022-10-16T12:20:36;101303.50;;;21.99;45.84
63654;BME280;49809;47.418;19.080;2022-10-16T12:24:02;101300.69;;;22.04;45.40
63654;BME280;49809;47.418;19.080;2022-10-16T12:27:29;101289.03;;;21.95;45.16
63654;BME280;49809;47.418;19.080;2022-10-16T12:30:35;101292.59;;;22.04;45.60
63654;BME280;49809;47.418;19.080;2022-10-16T12:34:02;101285.59;;;22.17;45.50
63654;BME280;49809;47.418;19.080;2022-10-16T12:37:11;101282.38;;;22.15;44.86
63654;BME280;49809;47.418;19.080;2022-10-16T12:40:28;101290.59;;;22.10;45.43
63654;BME280;49809;47.418;19.080;2022-10-16T12:46:37;101283.22;;;21.88;45.28
63654;BME280;49809;47.418;19.080;2022-10-16T12:49:49;101280.16;;;21.81;45.59
63654;BME280;49809;47.418;19.080;2022-10-16T12:52:58;101286.25;;;21.73;46.15
63654;BME280;49809;47.418;19.080;2022-10-16T12:56:47;101289.38;;;21.39;47.37
63654;BME280;49809;47.418;19.080;2022-10-16T13:08:17;101298.53;;;21.24;47.16
63654;BME280;49809;47.418;19.080;2022-10-16T13:15:24;101292.72;;;21.17;47.31
63654;BME280;49809;47.418;19.080;2022-10-16T13:23:23;101296.66;;;21.06;47.48
63654;BME280;49809;47.418;19.080;2022-10-16T13:30:17;101295.44;;;21.31;47.35
63654;BME280;49809;47.418;19.080;2022-10-16T13:34:15;101306.81;;;21.14;47.64
63654;BME280;49809;47.418;19.080;2022-10-16T13:38:24;101301.37;;;21.01;48.46
63654;BME280;49809;47.418;19.080;2022-10-16T13:41:31;101305.69;;;20.83;48.60
63654;BME280;49809;47.418;19.080;2022-10-16T13:44:58;101312.34;;;20.72;48.54
63654;BME280;49809;47.418;19.080;2022-10-16T13:48:38;101313.38;;;20.76;48.63
63654;BME280;49809;47.418;19.080;2022-10-16T13:52:41;101316.47;;;20.83;47.49
63654;BME280;49809;47.418;19.080;2022-10-16T13:56:16;101319.78;;;20.94;47.85
63654;BME280;49809;47.418;19.080;2022-10-16T13:59:39;101315.63;;;20.69;47.57
63654;BME280;49809;47.418;19.080;2022-10-16T14:03:13;101326.03;;;20.57;48.25
63654;BME280;49809;47.418;19.080;2022-10-16T14:06:43;101321.59;;;20.66;47.79
63654;BME280;49809;47.418;19.080;2022-10-16T14:10:34;101316.50;;;20.64;47.84
63654;BME280;49809;47.418;19.080;2022-10-16T14:13:58;101319.75;;;20.48;48.55
63654;BME280;49809;47.418;19.080;2022-10-16T14:17:24;101321.97;;;20.22;49.55
63654;BME280;49809;47.418;19.080;2022-10-16T14:20:31;101317.94;;;20.19;49.97
63654;BME280;49809;47.418;19.080;2022-10-16T14:23:54;101321.69;;;20.00;51.01
63654;BME280;49809;47.418;19.080;2022-10-16T14:31:00;101323.28;;;19.82;50.68
63654;BME280;49809;47.418;19.080;2022-10-16T14:34:25;101321.31;;;19.69;50.95
63654;BME280;49809;47.418;19.080;2022-10-16T14:38:18;101314.16;;;19.59;51.13
63654;BME280;49809;47.418;19.080;2022-10-16T14:41:49;101316.78;;;19.40;51.62
63654;BME280;49809;47.418;19.080;2022-10-16T14:45:40;101315.84;;;19.26;53.03
63654;BME280;49809;47.418;19.080;2022-10-16T14:52:17;101322.88;;;19.17;53.06
63654;BME280;49809;47.418;19.080;2022-10-16T14:55:25;101319.31;;;18.98;53.91
63654;BME280;49809;47.418;19.080;2022-10-16T14:58:51;101318.37;;;18.84;53.72
63654;BME280;49809;47.418;19.080;2022-10-16T15:02:35;101320.63;;;18.72;54.42
63654;BME280;49809;47.418;19.080;2022-10-16T15:06:02;101329.81;;;18.60;54.29
63654;BME280;49809;47.418;19.080;2022-10-16T15:09:06;101322.00;;;18.64;53.28
63654;BME280;49809;47.418;19.080;2022-10-16T15:12:52;101316.75;;;18.49;54.20
63654;BME280;49809;47.418;19.080;2022-10-16T15:16:43;101317.88;;;18.43;54.75
63654;BME280;49809;47.418;19.080;2022-10-16T15:19:52;101325.19;;;18.27;55.23
63654;BME280;49809;47.418;19.080;2022-10-16T15:23:03;101331.69;;;18.16;55.36
63654;BME280;49809;47.418;19.080;2022-10-16T15:26:28;101340.38;;;17.93;57.07
63654;BME280;49809;47.418;19.080;2022-10-16T15:29:55;101342.06;;;17.68;57.81
63654;BME280;49809;47.418;19.080;2022-10-16T15:33:26;101345.87;;;17.47;58.90
63654;BME280;49809;47.418;19.080;2022-10-16T15:41:13;101359.84;;;17.04;62.51
63654;BME280;49809;47.418;19.080;2022-10-16T15:44:39;101360.09;;;16.77;64.16
63654;BME280;49809;47.418;19.080;2022-10-16T15:48:25;101361.88;;;16.56;65.80
63654;BME280;49809;47.418;19.080;2022-10-16T15:52:07;101370.38;;;16.33;67.73
63654;BME280;49809;47.418;19.080;2022-10-16T15:55:33;101374.09;;;16.12;68.39
63654;BME280;49809;47.418;19.080;2022-10-16T15:59:37;101369.72;;;15.90;70.33
63654;BME280;49809;47.418;19.080;2022-10-16T16:02:59;101366.41;;;15.68;71.29
63654;BME280;49809;47.418;19.080;2022-10-16T16:06:36;101365.19;;;15.49;73.00
63654;BME280;49809;47.418;19.080;2022-10-16T16:10:11;101366.34;;;15.26;75.07
63654;BME280;49809;47.418;19.080;2022-10-16T16:13:37;101368.87;;;15.06;75.93
63654;BME280;49809;47.418;19.080;2022-10-16T16:17:07;101371.16;;;14.92;76.22
63654;BME280;49809;47.418;19.080;2022-10-16T16:20:40;101383.84;;;14.80;76.73
63654;BME280;49809;47.418;19.080;2022-10-16T16:24:14;101396.03;;;14.71;76.90
63654;BME280;49809;47.418;19.080;2022-10-16T16:27:52;101403.34;;;14.59;77.70
63654;BME280;49809;47.418;19.080;2022-10-16T16:31:18;101409.03;;;14.41;79.22
63654;BME280;49809;47.418;19.080;2022-10-16T16:35:06;101412.03;;;14.27;80.47
63654;BME280;49809;47.418;19.080;2022-10-16T16:38:34;101417.72;;;14.14;81.17
63654;BME280;49809;47.418;19.080;2022-10-16T16:42:10;101424.97;;;13.97;81.86
63654;BME280;49809;47.418;19.080;2022-10-16T16:46:13;101431.69;;;13.83;82.70
63654;BME280;49809;47.418;19.080;2022-10-16T16:49:32;101428.81;;;13.68;83.62
63654;BME280;49809;47.418;19.080;2022-10-16T16:52:50;101437.13;;;13.55;84.25
63654;BME280;49809;47.418;19.080;2022-10-16T16:56:28;101444.97;;;13.44;84.84
63654;BME280;49809;47.418;19.080;2022-10-16T17:00:31;101453.00;;;13.33;85.63
63654;BME280;49809;47.418;19.080;2022-10-16T17:04:09;101457.81;;;13.19;85.91
63654;BME280;49809;47.418;19.080;2022-10-16T17:07:56;101463.56;;;13.11;86.50
63654;BME280;49809;47.418;19.080;2022-10-16T17:11:28;101463.34;;;13.01;87.21
63654;BME280;49809;47.418;19.080;2022-10-16T17:14:51;101470.31;;;12.90;87.99
63654;BME280;49809;47.418;19.080;2022-10-16T17:18:35;101469.62;;;12.83;88.72
63654;BME280;49809;47.418;19.080;2022-10-16T17:22:18;101479.84;;;12.75;89.29
63654;BME280;49809;47.418;19.080;2022-10-16T17:26:14;101480.31;;;12.72;89.35
63654;BME280;49809;47.418;19.080;2022-10-16T17:29:58;101497.41;;;12.64;89.98
63654;BME280;49809;47.418;19.080;2022-10-16T17:33:41;101486.12;;;12.57;90.30
63654;BME280;49809;47.418;19.080;2022-10-16T17:37:05;101500.12;;;12.52;90.50
63654;BME280;49809;47.418;19.080;2022-10-16T17:40:30;101504.53;;;12.47;90.52
63654;BME280;49809;47.418;19.080;2022-10-16T17:44:17;101509.94;;;12.40;91.17
63654;BME280;49809;47.418;19.080;2022-10-16T17:47:53;101509.28;;;12.33;91.87
63654;BME280;49809;47.418;19.080;2022-10-16T17:51:17;101522.66;;;12.27;92.10
63654;BME280;49809;47.418;19.080;2022-10-16T17:54:36;101516.69;;;12.19;92.44
63654;BME280;49809;47.418;19.080;2022-10-16T17:57:58;101521.53;;;12.11;92.93
63654;BME280;49809;47.418;19.080;2022-10-16T18:01:40;101525.13;;;12.05;93.42
63654;BME280;49809;47.418;19.080;2022-10-16T18:05:12;101529.72;;;11.98;93.83
63654;BME280;49809;47.418;19.080;2022-10-16T18:08:56;101529.25;;;11.89;94.31
63654;BME280;49809;47.418;19.080;2022-10-16T18:12:20;101533.03;;;11.82;94.33
63654;BME280;49809;47.418;19.080;2022-10-16T18:16:01;101536.16;;;11.79;94.68
63654;BME280;49809;47.418;19.080;2022-10-16T18:19:27;101536.62;;;11.75;95.10
63654;BME280;49809;47.418;19.080;2022-10-16T19:12:23;101571.44;;;11.08;97.58
63654;BME280;49809;47.418;19.080;2022-10-16T19:35:23;101586.91;;;10.74;99.34
63654;BME280;49809;47.418;19.080;2022-10-16T19:55:08;101595.56;;;10.63;100.00
63654;BME280;49809;47.418;19.080;2022-10-16T20:03:28;101608.22;;;10.61;100.00
63654;BME280;49809;47.418;19.080;2022-10-16T20:07:36;101617.19;;;10.60;100.00
63654;BME280;49809;47.418;19.080;2022-10-16T20:23:18;101629.59;;;10.41;100.00
63654;BME280;49809;47.418;19.080;2022-10-16T21:05:39;101692.13;;;10.04;100.00
63654;BME280;49809;47.418;19.080;2022-10-16T21:10:09;101696.88;;;9.96;100.00
63654;BME280;49809;47.418;19.080;2022-10-16T21:22:19;101708.09;;;9.91;100.00
63654;BME280;49809;47.418;19.080;2022-10-16T23:47:09;101798.25;;;8.93;100.00
63654;BME280;49809;47.418;19.080;2022-10-16T23:51:03;101803.13;;;8.89;100.00
63654;BME280;49809;47.418;19.080;2022-10-16T23:55:03;101808.19;;;8.84;100.00
